Time;durP1;ratioP1;P1;durP2;ratioP2;P2;SDS_P1;SDS_P2;PMS_P1;PMS_P2;Temp;Humidity;BMP_temperature;BMP_pressure;BME280_temperature;BME280_humidity;BME280_pressure;Samples;Min_cycle;Max_cycle;Signal;HPM_P1;HPM_P2
2023/02/15 00:01:25;;;;;;;14.02;6.10;;;;;;;16.51;54.54;101730.66;4974021;28;20031;-78
2023/02/15 00:03:51;;;;;;;16.90;6.10;;;;;;;16.34;54.88;101739.78;4974286;28;20106;-72
2023/02/15 00:06:17;;;;;;;14.80;6.53;;;;;;;16.41;54.93;101739.28;4974036;28;20042;-73
2023/02/15 00:08:42;;;;;;;13.20;7.05;;;;;;;16.40;54.84;101738.47;4973824;28;20081;-72
2023/02/15 00:11:14;;;;;;;10.07;6.03;;;;;;;16.24;54.75;101748.38;4974144;28;20078;-73
2023/02/15 00:13:42;;;;;;;13.20;7.45;;;;;;;16.21;55.53;101738.81;4974067;28;20061;-75
2023/02/15 00:16:10;;;;;;;11.48;5.75;;;;;;;16.42;54.91;101744.47;4974044;28;20062;-76
2023/02/15 00:18:36;;;;;;;12.32;6.90;;;;;;;16.46;54.79;101745.41;4971388;28;20024;-77
2023/02/15 00:21:07;;;;;;;15.60;6.78;;;;;;;16.31;55.44;101741.22;4965439;28;20029;-75
2023/02/15 00:23:33;;;;;;;20.25;6.47;;;;;;;16.35;54.83;101744.16;4973856;28;20102;-73
2023/02/15 00:26:11;;;;;;;18.42;8.18;;;;;;;16.35;54.41;101747.72;4973793;28;20539;-76
2023/02/15 00:28:38;;;;;;;16.55;7.28;;;;;;;16.45;54.32;101741.03;4973650;28;20096;-77
2023/02/15 00:31:09;;;;;;;11.75;7.60;;;;;;;16.51;54.03;101749.97;4974009;28;20031;-74
2023/02/15 00:33:35;;;;;;;12.43;6.80;;;;;;;16.43;54.31;101746.09;4974242;28;20057;-74
2023/02/15 00:36:02;;;;;;;12.30;6.70;;;;;;;16.47;54.03;101733.25;4973973;28;20397;-74
2023/02/15 00:38:29;;;;;;;15.77;7.88;;;;;;;16.56;53.63;101734.06;4973541;28;20481;-73
2023/02/15 00:40:56;;;;;;;16.42;7.10;;;;;;;16.35;54.33;101736.69;4973779;28;20026;-74
2023/02/15 00:43:22;;;;;;;13.88;6.85;;;;;;;16.59;53.51;101716.81;4973930;28;20105;-72
2023/02/15 00:45:47;;;;;;;13.90;8.23;;;;;;;16.55;53.71;101723.31;4973809;28;20440;-74
2023/02/15 00:48:13;;;;;;;14.90;7.38;;;;;;;16.61;53.65;101724.75;4973680;28;20389;-74
2023/02/15 00:50:39;;;;;;;14.35;8.05;;;;;;;16.50;53.78;101724.31;4972415;28;20101;-74
2023/02/15 00:53:05;;;;;;;19.58;7.82;;;;;;;16.52;53.81;101722.03;4974105;28;20042;-73
2023/02/15 00:55:31;;;;;;;15.52;7.22;;;;;;;16.49;53.97;101719.94;4977611;28;20452;-73
2023/02/15 00:57:56;;;;;;;11.35;7.13;;;;;;;16.55;53.90;101710.38;4977911;28;20102;-73
2023/02/15 01:00:22;;;;;;;15.43;7.97;;;;;;;16.47;54.33;101707.59;4977238;28;20038;-76
2023/02/15 01:02:47;;;;;;;20.92;8.63;;;;;;;16.46;54.39;101704.03;4977505;28;20026;-73
2023/02/15 01:05:13;;;;;;;11.35;7.68;;;;;;;16.26;54.98;101702.00;4977237;28;20099;-75
2023/02/15 01:07:39;;;;;;;20.42;8.68;;;;;;;16.12;56.18;101688.41;4977711;28;20035;-75
2023/02/15 01:10:06;;;;;;;19.52;9.85;;;;;;;16.04;56.83;101687.28;4977415;28;20027;-73
2023/02/15 01:12:32;;;;;;;14.98;7.88;;;;;;;16.17;56.76;101679.13;4977620;28;20022;-74
2023/02/15 01:14:58;;;;;;;14.05;8.80;;;;;;;16.27;56.92;101685.13;4977236;28;20070;-76
2023/02/15 01:17:23;;;;;;;17.13;9.30;;;;;;;16.26;56.83;101674.44;4977224;28;20076;-74
2023/02/15 01:19:49;;;;;;;26.27;9.55;;;;;;;16.28;56.72;101666.63;4977026;28;20062;-73
2023/02/15 01:22:14;;;;;;;14.65;9.20;;;;;;;15.94;58.89;101668.31;4977125;28;20034;-73
2023/02/15 01:24:40;;;;;;;16.67;8.93;;;;;;;15.66;61.53;101656.84;4976976;28;20547;-73
2023/02/15 01:27:06;;;;;;;19.17;10.35;;;;;;;15.70;63.12;101654.25;4976953;28;20027;-73
2023/02/15 01:29:32;;;;;;;25.23;10.02;;;;;;;15.88;62.40;101644.84;4977015;28;20022;-75
2023/02/15 01:31:57;;;;;;;19.52;9.23;;;;;;;15.87;63.21;101637.72;4976993;28;20033;-74
2023/02/15 01:34:23;;;;;;;17.88;9.90;;;;;;;15.92;63.43;101633.97;4977126;28;20027;-73
2023/02/15 01:36:49;;;;;;;30.45;10.65;;;;;;;15.89;63.96;101629.91;4977174;28;20358;-76
2023/02/15 01:39:14;;;;;;;21.05;9.70;;;;;;;15.92;64.50;101629.25;4976644;28;20034;-73
2023/02/15 01:41:40;;;;;;;19.05;9.70;;;;;;;15.97;64.80;101626.34;4976886;28;20019;-75
2023/02/15 01:44:43;;;;;;;24.80;11.50;;;;;;;15.57;69.67;101622.13;4976789;28;20023;-72
2023/02/15 01:47:17;;;;;;;20.33;10.75;;;;;;;15.60;71.04;101621.50;4976702;28;20034;-74
2023/02/15 01:49:46;;;;;;;19.23;10.35;;;;;;;15.89;68.17;101613.38;4976696;28;20027;-74
2023/02/15 01:52:16;;;;;;;20.20;11.20;;;;;;;15.93;67.69;101603.31;4977015;28;20440;-72
2023/02/15 01:54:44;;;;;;;24.42;10.00;;;;;;;15.86;69.88;101596.69;4976531;28;20304;-73
2023/02/15 01:57:18;;;;;;;17.75;10.73;;;;;;;15.69;72.66;101595.56;4976761;28;20026;-74
2023/02/15 01:59:49;;;;;;;19.85;10.40;;;;;;;15.65;74.35;101585.56;4976559;28;20023;-73
2023/02/15 02:02:20;;;;;;;22.40;11.40;;;;;;;15.73;73.76;101576.47;4976455;28;20054;-77
2023/02/15 02:04:50;;;;;;;22.45;10.73;;;;;;;15.74;74.82;101573.38;4975818;28;20027;-77
2023/02/15 02:07:22;;;;;;;20.92;11.25;;;;;;;15.72;75.18;101567.38;4964778;28;20478;-77
2023/02/15 02:09:48;;;;;;;20.88;10.18;;;;;;;15.69;76.07;101564.47;4976090;28;20031;-73
2023/02/15 02:12:16;;;;;;;23.58;11.68;;;;;;;15.57;79.57;101553.25;4976498;28;20014;-73
2023/02/15 02:14:43;;;;;;;18.70;10.45;;;;;;;15.58;80.61;101552.16;4976118;28;20034;-72
2023/02/15 02:17:30;;;;;;;21.27;10.95;;;;;;;15.49;83.94;101539.22;4976003;28;20039;-74
2023/02/15 02:20:05;;;;;;;20.90;10.63;;;;;;;15.49;85.52;101541.97;4976017;28;20038;-72
2023/02/15 02:23:06;;;;;;;18.63;10.10;;;;;;;15.57;85.72;101536.75;4974838;28;20034;-76
2023/02/15 02:26:20;;;;;;;28.23;12.90;;;;;;;15.29;93.58;101520.59;4975485;28;20038;-76
2023/02/15 02:29:16;;;;;;;20.80;12.18;;;;;;;15.40;94.83;101510.84;4960166;28;20047;-74
2023/02/15 02:31:56;;;;;;;26.73;12.88;;;;;;;15.57;92.04;101511.94;4975883;28;20034;-73
2023/02/15 02:34:40;;;;;;;22.75;12.48;;;;;;;15.81;87.42;101515.81;4975898;28;20478;-74
2023/02/15 02:37:24;;;;;;;28.67;14.52;;;;;;;15.96;86.29;101519.16;4975945;28;20031;-74
2023/02/15 02:40:18;;;;;;;32.28;13.63;;;;;;;15.71;92.00;101520.84;4975802;28;20035;-76
2023/02/15 02:42:56;;;;;;;20.98;13.23;;;;;;;15.67;93.35;101511.66;4976000;28;20394;-73
2023/02/15 02:45:28;;;;;;;31.27;13.77;;;;;;;15.66;95.29;101516.34;4975642;28;20050;-75
2023/02/15 02:48:03;;;;;;;31.15;14.95;;;;;;;15.61;97.99;101524.78;4975982;28;20033;-77
2023/02/15 02:50:29;;;;;;;23.92;13.43;;;;;;;15.77;93.45;101519.53;4974518;28;20178;-73
2023/02/15 02:52:57;;;;;;;35.00;15.05;;;;;;;15.73;97.20;101513.09;4975507;28;20477;-72
2023/02/15 02:55:30;;;;;;;31.92;15.40;;;;;;;15.65;100.00;101514.75;4975223;28;20089;-73
2023/02/15 02:58:14;;;;;;;24.45;14.95;;;;;;;15.80;97.84;101505.13;4974206;28;20030;-72
2023/02/15 03:00:50;;;;;;;23.70;14.45;;;;;;;15.88;95.28;101492.47;4975386;28;20105;-73
2023/02/15 03:03:26;;;;;;;24.98;16.60;;;;;;;15.74;99.65;101495.41;4975421;28;20030;-74
2023/02/15 03:05:56;;;;;;;28.48;16.08;;;;;;;15.91;95.58;101486.28;4974812;28;20134;-75
2023/02/15 03:08:27;;;;;;;26.80;16.08;;;;;;;15.88;96.28;101485.00;4975330;28;20366;-73
2023/02/15 03:10:56;;;;;;;24.67;15.32;;;;;;;15.90;95.49;101477.19;4974690;28;20027;-75
2023/02/15 03:13:23;;;;;;;27.23;15.70;;;;;;;15.77;100.00;101472.72;4975149;28;20041;-73
2023/02/15 03:18:44;;;;;;;33.38;16.77;;;;;;;15.72;100.00;101459.94;4975430;28;20540;-77
2023/02/15 03:21:21;;;;;;;26.88;17.13;;;;;;;15.84;100.00;101453.72;4975315;28;20031;-75
2023/02/15 03:23:54;;;;;;;26.00;17.33;;;;;;;15.79;100.00;101443.69;4975009;28;20080;-72
2023/02/15 03:26:21;;;;;;;28.40;18.83;;;;;;;15.84;100.00;101439.13;4974853;28;20119;-72
2023/02/15 03:28:51;;;;;;;31.13;18.35;;;;;;;15.80;100.00;101433.50;4974797;28;20049;-75
2023/02/15 03:31:20;;;;;;;27.70;18.27;;;;;;;15.85;100.00;101432.47;4974779;28;20030;-76
2023/02/15 03:33:54;;;;;;;29.30;17.70;;;;;;;15.86;100.00;101432.13;4974793;28;20035;-73
2023/02/15 03:36:28;;;;;;;27.83;17.13;;;;;;;15.88;100.00;101421.63;4974623;28;20035;-73
2023/02/15 03:39:24;;;;;;;34.30;18.60;;;;;;;15.72;100.00;101417.81;4974982;28;20019;-75
2023/02/15 03:42:16;;;;;;;30.70;17.75;;;;;;;15.74;100.00;101402.56;4974622;28;20039;-74
2023/02/15 03:45:11;;;;;;;29.33;17.27;;;;;;;15.81;100.00;101388.25;4974557;28;20027;-73
2023/02/15 03:47:46;;;;;;;25.77;17.00;;;;;;;15.64;100.00;101391.06;4974538;28;20050;-74
2023/02/15 03:53:22;;;;;;;23.63;17.55;;;;;;;15.74;100.00;101386.03;4974457;28;20177;-74
2023/02/15 03:55:49;;;;;;;29.15;18.95;;;;;;;15.81;100.00;101397.31;4974632;28;20053;-76
2023/02/15 04:04:02;;;;;;;33.65;19.25;;;;;;;15.81;100.00;101374.47;4974537;28;20081;-75
2023/02/15 04:06:28;;;;;;;29.60;19.70;;;;;;;15.66;100.00;101369.53;4973838;28;20117;-76
2023/02/15 04:11:37;;;;;;;33.38;18.80;;;;;;;15.75;100.00;101362.84;4954647;29;20054;-73
2023/02/15 04:16:02;;;;;;;24.52;19.05;;;;;;;15.84;100.00;101345.44;4955373;28;20056;-75
2023/02/15 04:16:49;;;;;;;33.30;18.45;;;;;;;15.85;100.00;101360.81;4956772;28;20031;-73
2023/02/15 04:27:27;;;;;;;32.63;19.95;;;;;;;15.92;100.00;101356.41;4954425;28;20045;-74
2023/02/15 04:29:52;;;;;;;30.35;18.73;;;;;;;15.88;100.00;101358.22;4954754;28;20035;-76
2023/02/15 04:32:18;;;;;;;34.92;20.48;;;;;;;15.97;100.00;101364.50;4961500;28;20497;-77
2023/02/15 04:34:43;;;;;;;36.38;19.20;;;;;;;16.05;100.00;101357.31;4956028;28;20031;-74
2023/02/15 04:37:10;;;;;;;34.80;19.85;;;;;;;16.05;100.00;101358.09;4972050;28;20092;-77
2023/02/15 04:39:35;;;;;;;35.95;19.95;;;;;;;16.07;100.00;101339.28;4973456;28;20501;-74
2023/02/15 04:42:01;;;;;;;31.95;19.90;;;;;;;16.14;100.00;101327.72;4972450;28;20074;-73
2023/02/15 04:44:26;;;;;;;33.53;19.83;;;;;;;16.06;100.00;101310.09;4973797;28;20037;-73
2023/02/15 04:46:52;;;;;;;33.25;20.15;;;;;;;16.13;100.00;101317.03;4973576;28;20041;-73
2023/02/15 04:49:18;;;;;;;28.75;18.42;;;;;;;16.11;100.00;101317.38;4973586;28;20046;-73
2023/02/15 04:51:43;;;;;;;34.55;19.67;;;;;;;16.22;100.00;101312.25;4973652;28;20030;-74
2023/02/15 04:54:09;;;;;;;34.05;19.13;;;;;;;16.21;100.00;101333.50;4972424;28;20034;-73
2023/02/15 04:56:37;;;;;;;32.28;20.35;;;;;;;16.30;100.00;101349.97;4973660;28;20106;-72
2023/02/15 04:59:03;;;;;;;31.38;18.55;;;;;;;16.37;100.00;101358.50;4973382;28;20027;-73
2023/02/15 05:01:28;;;;;;;44.75;18.85;;;;;;;16.34;100.00;101359.19;4973571;28;20027;-72
2023/02/15 05:03:54;;;;;;;30.95;18.73;;;;;;;16.46;100.00;101359.25;4973571;28;20062;-73
2023/02/15 05:06:20;;;;;;;32.05;17.27;;;;;;;16.51;100.00;101359.03;4973335;28;20157;-74
2023/02/15 05:08:46;;;;;;;29.20;17.98;;;;;;;16.59;100.00;101360.09;4973892;28;20031;-77
2023/02/15 05:11:11;;;;;;;24.88;15.43;;;;;;;16.56;100.00;101356.09;4973531;28;20038;-73
2023/02/15 05:13:37;;;;;;;26.85;15.60;;;;;;;16.47;100.00;101371.88;4973413;28;20062;-72
2023/02/15 05:16:03;;;;;;;18.83;9.27;;;;;;;16.12;100.00;101415.47;4973491;28;20030;-74
2023/02/15 05:18:28;;;;;;;10.48;5.18;;;;;;;16.01;100.00;101417.78;4973490;28;20038;-77
2023/02/15 05:20:54;;;;;;;8.00;4.13;;;;;;;15.65;100.00;101425.78;4973351;28;20035;-73
2023/02/15 05:23:19;;;;;;;4.63;2.13;;;;;;;15.44;100.00;101434.72;4973376;28;20113;-74
2023/02/15 05:28:34;;;;;;;2.40;1.20;;;;;;;15.40;100.00;101454.97;4973386;28;20112;-72
2023/02/15 05:31:06;;;;;;;2.88;1.27;;;;;;;15.44;100.00;101458.69;4973636;28;20492;-73
2023/02/15 05:33:33;;;;;;;1.23;0.90;;;;;;;15.26;100.00;101468.91;4973609;28;20374;-73
2023/02/15 05:35:58;;;;;;;1.10;0.70;;;;;;;15.24;100.00;101471.22;4973246;28;20037;-75
2023/02/15 05:38:24;;;;;;;1.70;0.70;;;;;;;15.10;100.00;101459.56;4973602;28;20023;-73
2023/02/15 05:40:51;;;;;;;4.15;0.82;;;;;;;15.17;100.00;101465.38;4975806;28;20038;-78
2023/02/15 05:43:17;;;;;;;1.63;0.80;;;;;;;15.06;100.00;101461.38;4976822;28;20031;-74
2023/02/15 05:45:51;;;;;;;5.40;1.00;;;;;;;15.04;100.00;101464.44;4976690;28;20035;-73
2023/02/15 05:48:17;;;;;;;1.25;0.63;;;;;;;14.88;100.00;101477.06;4976790;28;20065;-72
2023/02/15 05:50:43;;;;;;;1.25;0.73;;;;;;;14.94;100.00;101467.50;4976503;28;20034;-73
2023/02/15 05:53:09;;;;;;;1.85;0.80;;;;;;;15.06;100.00;101450.34;4976620;28;20038;-74
2023/02/15 05:55:40;;;;;;;1.65;0.90;;;;;;;15.10;100.00;101470.56;4976435;28;20421;-75
2023/02/15 05:58:07;;;;;;;1.98;1.08;;;;;;;15.09;100.00;101455.19;4970757;28;20488;-74
2023/02/15 06:00:34;;;;;;;0.85;0.55;;;;;;;14.97;100.00;101456.69;4957172;28;20110;-72
2023/02/15 06:02:59;;;;;;;2.45;0.60;;;;;;;14.85;100.00;101456.50;4962743;28;20039;-73
2023/02/15 06:05:25;;;;;;;2.10;0.85;;;;;;;14.74;100.00;101463.50;4962749;28;20058;-73
2023/02/15 06:07:50;;;;;;;1.02;0.40;;;;;;;14.83;100.00;101458.78;4961818;28;20037;-74
2023/02/15 06:10:16;;;;;;;3.88;0.68;;;;;;;14.85;100.00;101459.28;4968861;28;20031;-75
2023/02/15 06:12:41;;;;;;;1.88;0.85;;;;;;;14.82;100.00;101465.44;4965536;28;20032;-74
2023/02/15 06:15:07;;;;;;;9.10;1.63;;;;;;;14.76;100.00;101466.72;4957156;29;20113;-74
2023/02/15 06:17:33;;;;;;;5.22;0.90;;;;;;;14.95;100.00;101463.63;4957095;29;20106;-73
2023/02/15 06:19:58;;;;;;;2.45;0.45;;;;;;;14.85;100.00;101475.78;4957083;28;20534;-73
2023/02/15 06:22:24;;;;;;;0.65;0.38;;;;;;;14.73;100.00;101475.59;4956753;28;20069;-73
2023/02/15 06:24:49;;;;;;;0.52;0.20;;;;;;;14.74;100.00;101474.50;4961545;28;20039;-73
2023/02/15 06:27:15;;;;;;;4.07;0.68;;;;;;;14.62;100.00;101477.06;4963031;28;20031;-74
2023/02/15 06:29:41;;;;;;;5.70;0.75;;;;;;;14.76;100.00;101485.97;4956675;28;20385;-75
2023/02/15 06:32:06;;;;;;;15.20;1.05;;;;;;;14.61;100.00;101486.44;4956655;29;20034;-73
2023/02/15 06:34:32;;;;;;;4.82;0.85;;;;;;;14.68;100.00;101489.53;4956515;29;20038;-73
2023/02/15 06:36:58;;;;;;;0.95;0.40;;;;;;;14.69;100.00;101496.66;4956485;29;20038;-73
2023/02/15 06:39:23;;;;;;;1.30;0.40;;;;;;;14.51;100.00;101504.06;4964017;28;20078;-73
2023/02/15 06:41:49;;;;;;;1.08;0.40;;;;;;;14.47;100.00;101513.28;4975548;28;20034;-73
2023/02/15 06:44:14;;;;;;;0.93;0.40;;;;;;;14.59;100.00;101494.22;4975687;28;20026;-73
2023/02/15 06:46:40;;;;;;;1.30;0.35;;;;;;;14.44;100.00;101509.22;4975472;28;20031;-77
2023/02/15 06:49:06;;;;;;;1.95;0.30;;;;;;;14.41;100.00;101515.31;4972637;28;20062;-72
2023/02/15 06:51:31;;;;;;;0.98;0.35;;;;;;;14.41;100.00;101527.13;4960299;28;20024;-78
2023/02/15 06:53:57;;;;;;;0.30;0.20;;;;;;;14.33;100.00;101522.41;4967680;28;20049;-73
2023/02/15 06:56:22;;;;;;;2.58;0.63;;;;;;;14.43;100.00;101524.91;4956463;28;20027;-73
2023/02/15 06:58:49;;;;;;;6.43;0.70;;;;;;;14.46;100.00;101523.47;4956045;29;20033;-74
2023/02/15 07:01:15;;;;;;;4.38;0.68;;;;;;;14.49;100.00;101522.00;4956126;28;20058;-73
2023/02/15 07:03:41;;;;;;;3.92;1.33;;;;;;;14.50;100.00;101518.94;4956013;28;20043;-74
2023/02/15 07:06:08;;;;;;;2.25;0.70;;;;;;;14.48;100.00;101514.88;4957359;28;20051;-73
2023/02/15 07:08:37;;;;;;;5.35;1.15;;;;;;;14.48;100.00;101515.69;4965168;28;20031;-73
2023/02/15 07:13:48;;;;;;;7.82;1.15;;;;;;;14.45;100.00;101532.81;4975245;28;20559;-74
2023/02/15 07:16:14;;;;;;;4.65;1.35;;;;;;;14.53;100.00;101528.50;4973964;28;20050;-73
2023/02/15 07:18:40;;;;;;;13.45;2.05;;;;;;;14.46;100.00;101530.91;4975119;28;20057;-73
2023/02/15 07:21:09;;;;;;;6.43;0.90;;;;;;;14.41;100.00;101523.56;4966731;28;20133;-73
2023/02/15 07:23:37;;;;;;;13.50;1.63;;;;;;;14.41;100.00;101518.88;4972542;28;20381;-73
2023/02/15 07:26:04;;;;;;;2.47;0.70;;;;;;;14.49;100.00;101520.06;4974890;28;20528;-72
2023/02/15 07:28:30;;;;;;;11.52;2.35;;;;;;;14.54;100.00;101521.88;4974828;28;20026;-73
2023/02/15 07:30:57;;;;;;;7.97;1.50;;;;;;;14.40;100.00;101520.03;4974829;28;20031;-77
2023/02/15 07:33:22;;;;;;;3.40;0.70;;;;;;;14.50;100.00;101516.19;4973597;28;20389;-73
2023/02/15 07:35:54;;;;;;;7.38;1.30;;;;;;;14.52;100.00;101521.38;4965554;28;20109;-74
2023/02/15 07:38:20;;;;;;;1.85;0.70;;;;;;;14.47;100.00;101508.59;4955439;28;20032;-73
2023/02/15 07:40:46;;;;;;;5.13;1.30;;;;;;;14.53;100.00;101503.75;4967779;28;20034;-73
2023/02/15 07:43:12;;;;;;;3.65;0.98;;;;;;;14.46;100.00;101512.47;4974536;28;20023;-73
2023/02/15 07:45:37;;;;;;;7.82;1.70;;;;;;;14.40;100.00;101508.22;4974335;28;20118;-73
2023/02/15 07:48:04;;;;;;;5.43;1.33;;;;;;;14.45;100.00;101505.31;4971786;28;20095;-73
2023/02/15 07:50:32;;;;;;;2.40;0.95;;;;;;;14.58;100.00;101509.06;4965457;28;20595;-73
2023/02/15 07:52:58;;;;;;;2.92;0.80;;;;;;;14.56;100.00;101514.09;4973197;28;20042;-75
2023/02/15 07:55:24;;;;;;;8.70;1.40;;;;;;;14.42;100.00;101512.25;4961454;28;20035;-74
2023/02/15 07:57:51;;;;;;;15.80;3.42;;;;;;;14.60;100.00;101504.09;4965781;28;20046;-74
2023/02/15 08:00:21;;;;;;;4.38;1.08;;;;;;;14.41;100.00;101502.38;4974360;28;20034;-74
2023/02/15 08:03:12;;;;;;;;;;;;;;;14.30;100.00;101497.53;4974194;28;20030;-74
2023/02/15 08:05:40;;;;;;;15.30;9.32;;;;;;;14.48;100.00;101504.69;4973894;28;20289;-73
2023/02/15 08:08:06;;;;;;;4.25;0.98;;;;;;;14.61;100.00;101513.94;4974192;28;20565;-74
2023/02/15 08:13:17;;;;;;;4.70;1.25;;;;;;;14.40;100.00;101508.22;4959664;28;20517;-73
2023/02/15 08:15:51;;;;;;;7.60;2.28;;;;;;;14.52;100.00;101502.13;4954995;29;20035;-74
2023/02/15 08:18:17;;;;;;;11.07;2.72;;;;;;;14.22;100.00;101501.88;4954730;28;20065;-73
2023/02/15 08:20:42;;;;;;;6.25;2.30;;;;;;;14.37;100.00;101504.19;4955053;28;20106;-74
2023/02/15 08:23:08;;;;;;;4.38;2.50;;;;;;;14.33;100.00;101508.69;4954664;28;20601;-75
2023/02/15 08:25:34;;;;;;;6.78;2.83;;;;;;;14.35;100.00;101498.16;4963985;28;20033;-74
2023/02/15 08:27:59;;;;;;;6.25;3.45;;;;;;;14.50;100.00;101518.13;4956227;28;20122;-74
2023/02/15 08:30:25;;;;;;;4.75;3.15;;;;;;;14.44;100.00;101521.00;4954882;28;20102;-73
2023/02/15 08:32:50;;;;;;;5.35;3.05;;;;;;;14.36;100.00;101521.81;4959313;28;20605;-74
2023/02/15 08:35:16;;;;;;;5.03;3.38;;;;;;;14.55;100.00;101527.03;4973760;28;20066;-77
2023/02/15 08:37:42;;;;;;;6.88;2.92;;;;;;;14.48;100.00;101529.44;4971131;28;20496;-73
2023/02/15 08:40:08;;;;;;;7.90;2.75;;;;;;;14.37;100.00;101522.59;4970305;28;20027;-74
2023/02/15 08:42:34;;;;;;;5.35;2.45;;;;;;;14.36;100.00;101526.50;4963341;28;20025;-75
2023/02/15 08:44:59;;;;;;;10.02;2.15;;;;;;;14.44;100.00;101526.50;4958646;28;20027;-74
2023/02/15 08:47:25;;;;;;;3.38;1.67;;;;;;;14.47;100.00;101535.28;4954292;28;20039;-72
2023/02/15 08:49:51;;;;;;;7.28;2.20;;;;;;;14.50;100.00;101529.13;4964807;28;20059;-72
2023/02/15 08:52:17;;;;;;;2.13;1.48;;;;;;;14.55;100.00;101532.53;4964607;28;20039;-73
2023/02/15 08:54:42;;;;;;;7.85;1.60;;;;;;;14.37;100.00;101534.41;4954380;28;20039;-74
2023/02/15 08:57:09;;;;;;;3.55;1.10;;;;;;;14.36;100.00;101541.03;4965966;28;20101;-73
2023/02/15 08:59:34;;;;;;;2.00;1.08;;;;;;;14.36;100.00;101540.25;4957607;28;20547;-75
2023/02/15 09:02:01;;;;;;;2.45;1.73;;;;;;;14.40;100.00;101541.19;4956895;28;20031;-74
2023/02/15 09:04:26;;;;;;;7.47;1.98;;;;;;;14.32;100.00;101542.81;4973655;28;20031;-74
2023/02/15 09:06:52;;;;;;;1.60;1.02;;;;;;;14.26;100.00;101543.25;4973289;28;20378;-73
2023/02/15 09:09:18;;;;;;;3.92;1.05;;;;;;;14.27;100.00;101545.69;4971460;28;20105;-74
2023/02/15 09:11:47;;;;;;;3.03;0.90;;;;;;;14.24;100.00;101553.78;4975432;28;20034;-73
2023/02/15 09:14:21;;;;;;;6.18;1.30;;;;;;;14.16;100.00;101558.09;4963225;28;20568;-75
2023/02/15 09:16:49;;;;;;;3.78;1.05;;;;;;;14.22;100.00;101553.28;4967732;28;20031;-72
2023/02/15 09:19:17;;;;;;;1.85;0.90;;;;;;;14.24;100.00;101559.28;4968971;28;20470;-72
2023/02/15 09:21:43;;;;;;;2.45;0.85;;;;;;;14.10;100.00;101571.16;4965199;28;20031;-73
2023/02/15 09:24:10;;;;;;;2.22;1.02;;;;;;;14.12;100.00;101563.41;4972450;28;20041;-74
2023/02/15 09:26:40;;;;;;;5.25;1.05;;;;;;;14.17;100.00;101567.97;4967850;28;20034;-74
2023/02/15 09:29:06;;;;;;;6.07;1.65;;;;;;;14.09;100.00;101575.06;4967134;28;20517;-74
2023/02/15 09:31:37;;;;;;;2.90;1.45;;;;;;;14.04;100.00;101568.88;4965863;28;20039;-73
2023/02/15 09:34:02;;;;;;;1.90;1.08;;;;;;;14.13;100.00;101577.97;4964962;28;20027;-73
2023/02/15 09:36:34;;;;;;;1.35;0.63;;;;;;;14.29;100.00;101573.69;4967070;28;20027;-75
2023/02/15 09:39:23;;;;;;;3.30;1.48;;;;;;;14.39;100.00;101578.09;4970831;28;20038;-73
2023/02/15 09:41:54;;;;;;;2.90;0.82;;;;;;;14.55;100.00;101571.03;4969692;28;20046;-73
2023/02/15 09:44:38;;;;;;;2.78;0.80;;;;;;;14.60;100.00;101570.91;4964985;28;20081;-73
2023/02/15 09:47:31;;;;;;;5.07;1.90;;;;;;;14.70;100.00;101567.84;4967048;28;20023;-72
2023/02/15 09:50:12;;;;;;;2.08;0.85;;;;;;;14.54;100.00;101560.38;4970829;28;20042;-72
2023/02/15 09:53:19;;;;;;;1.23;0.80;;;;;;;14.75;100.00;101564.13;4972864;28;20097;-71
2023/02/15 09:56:01;;;;;;;3.92;1.13;;;;;;;14.83;100.00;101565.28;4946076;28;20070;-74
2023/02/15 09:58:39;;;;;;;3.20;1.10;;;;;;;14.95;100.00;101558.00;4965246;28;20027;-73
2023/02/15 10:01:20;;;;;;;2.97;1.00;;;;;;;14.93;100.00;101557.50;4966605;28;20022;-72
2023/02/15 10:04:06;;;;;;;2.22;0.98;;;;;;;14.93;100.00;101553.97;4968909;28;20422;-74
2023/02/15 10:07:01;;;;;;;2.05;0.65;;;;;;;15.13;100.00;101560.78;4965351;28;20070;-73
2023/02/15 10:10:00;;;;;;;0.40;0.40;;;;;;;15.12;100.00;101554.47;4957105;28;20027;-74
2023/02/15 10:12:53;;;;;;;1.48;0.63;;;;;;;15.26;100.00;101562.53;4957014;29;20031;-74
2023/02/15 10:15:24;;;;;;;1.02;0.82;;;;;;;15.25;100.00;101563.66;4956952;29;20027;-77
2023/02/15 10:18:01;;;;;;;1.00;0.47;;;;;;;15.48;100.00;101567.84;4956938;28;20121;-73
2023/02/15 10:20:39;;;;;;;1.77;1.25;;;;;;;15.27;100.00;101575.19;4967814;28;20489;-76
2023/02/15 10:23:29;;;;;;;3.80;0.95;;;;;;;15.54;100.00;101574.81;4960950;28;20113;-75
2023/02/15 10:26:19;;;;;;;3.78;1.38;;;;;;;15.60;100.00;101580.97;4966473;28;20030;-76
2023/02/15 10:28:56;;;;;;;1.08;0.60;;;;;;;15.84;100.00;101583.22;4966625;28;20097;-76
2023/02/15 10:31:26;;;;;;;4.72;0.90;;;;;;;16.00;100.00;101587.06;4970997;28;20027;-78
2023/02/15 10:34:03;;;;;;;1.17;0.60;;;;;;;15.91;100.00;101589.06;4965540;28;20027;-78
2023/02/15 10:36:40;;;;;;;4.53;0.98;;;;;;;15.85;100.00;101581.28;4969939;28;20113;-79
2023/02/15 10:39:25;;;;;;;1.70;0.63;;;;;;;16.09;100.00;101585.09;4966657;28;20027;-83
2023/02/15 10:42:07;;;;;;;2.33;1.20;;;;;;;16.24;100.00;101578.22;4965246;28;20065;-79
2023/02/15 10:44:58;;;;;;;2.55;0.95;;;;;;;16.25;100.00;101579.06;4971425;28;20026;-79
2023/02/15 10:47:38;;;;;;;2.72;0.88;;;;;;;16.35;100.00;101578.69;4974172;28;20031;-79
2023/02/15 10:50:41;;;;;;;3.85;0.70;;;;;;;16.16;100.00;101584.59;4964698;28;20545;-79
2023/02/15 10:53:33;;;;;;;7.93;1.55;;;;;;;16.06;100.00;101579.44;4949964;29;20039;-79
2023/02/15 10:56:12;;;;;;;4.55;1.20;;;;;;;16.15;100.00;101574.69;4937186;29;20069;-77
2023/02/15 10:58:56;;;;;;;4.75;1.00;;;;;;;16.31;100.00;101577.72;4956335;28;20030;-75
2023/02/15 11:01:40;;;;;;;4.13;1.10;;;;;;;16.11;100.00;101587.53;4965751;28;20031;-77
2023/02/15 11:04:31;;;;;;;4.18;0.90;;;;;;;16.27;100.00;101591.38;4970668;28;20466;-79
2023/02/15 11:07:02;;;;;;;4.45;0.93;;;;;;;16.41;100.00;101585.63;4975176;28;20055;-79
2023/02/15 11:09:38;;;;;;;3.40;1.27;;;;;;;16.34;100.00;101590.84;4975258;28;20027;-79
2023/02/15 11:12:11;;;;;;;3.28;1.15;;;;;;;16.32;100.00;101584.84;4974929;28;20023;-74
2023/02/15 11:15:11;;;;;;;2.80;1.10;;;;;;;16.29;100.00;101583.56;4972518;28;20023;-79
2023/02/15 11:17:44;;;;;;;5.90;1.13;;;;;;;16.30;100.00;101592.66;4973774;28;20054;-80
2023/02/15 11:20:33;;;;;;;3.53;1.40;;;;;;;16.26;100.00;101588.94;4975142;28;20030;-75
2023/02/15 11:23:01;;;;;;;7.35;1.48;;;;;;;16.48;100.00;101590.63;4974801;28;20019;-79
2023/02/15 11:25:34;;;;;;;6.45;1.35;;;;;;;16.48;100.00;101591.44;4975030;28;20093;-79
2023/02/15 11:28:06;;;;;;;4.22;1.30;;;;;;;16.44;100.00;101589.66;4970092;28;20027;-79
2023/02/15 11:30:47;;;;;;;12.48;2.05;;;;;;;16.41;100.00;101590.34;4974841;28;20041;-78
2023/02/15 11:33:45;;;;;;;5.03;1.23;;;;;;;16.49;100.00;101593.06;4973458;28;20034;-78
2023/02/15 11:36:18;;;;;;;5.47;1.38;;;;;;;16.59;100.00;101592.66;4959277;28;20128;-77
2023/02/15 11:38:46;;;;;;;7.70;2.08;;;;;;;16.63;100.00;101588.13;4974376;28;20034;-78
2023/02/15 11:41:19;;;;;;;7.55;1.85;;;;;;;16.68;100.00;101578.00;4972162;28;20035;-78
2023/02/15 11:43:53;;;;;;;5.40;1.73;;;;;;;16.72;100.00;101590.84;4967490;28;20470;-76
2023/02/15 11:46:21;;;;;;;4.05;1.10;;;;;;;16.60;100.00;101591.53;4957259;28;20030;-76
2023/02/15 11:48:47;;;;;;;3.55;1.00;;;;;;;16.83;100.00;101596.78;4965298;28;20023;-77
2023/02/15 11:51:16;;;;;;;5.32;1.40;;;;;;;16.85;100.00;101588.97;4965356;28;20035;-78
2023/02/15 11:53:43;;;;;;;3.72;1.33;;;;;;;16.85;100.00;101598.09;4964994;28;20034;-77
2023/02/15 11:56:21;;;;;;;3.80;1.08;;;;;;;16.77;100.00;101598.91;4969480;28;20146;-76
2023/02/15 11:59:17;;;;;;;2.70;0.98;;;;;;;16.80;100.00;101602.97;4956973;28;20035;-76
2023/02/15 12:01:44;;;;;;;3.53;1.33;;;;;;;16.83;100.00;101605.88;4965966;28;20044;-75
2023/02/15 12:04:29;;;;;;;7.97;1.42;;;;;;;16.97;100.00;101607.56;4969845;28;20029;-74